createdAt,value
2018-11-25T00:00:19.168Z,20.47
2018-11-25T00:01:19.180Z,20.44
2018-11-25T00:02:19.147Z,20.43
2018-11-25T00:03:19.134Z,20.34
2018-11-25T00:04:19.121Z,20.39
2018-11-25T00:05:19.110Z,20.40
2018-11-25T00:06:19.122Z,20.34
2018-11-25T00:07:19.088Z,20.48
2018-11-25T00:08:19.078Z,20.43
2018-11-25T00:09:19.064Z,20.43
2018-11-25T00:10:19.070Z,20.36
2018-11-25T00:11:19.042Z,20.40
2018-11-25T00:12:19.032Z,20.47
2018-11-25T00:13:19.019Z,20.36
2018-11-25T00:14:19.011Z,20.36
2018-11-25T00:15:19.023Z,20.43
2018-11-25T00:16:18.984Z,20.36
2018-11-25T00:17:18.973Z,20.44
2018-11-25T00:18:18.994Z,20.41
2018-11-25T00:19:18.949Z,20.47
2018-11-25T00:20:18.942Z,20.39
2018-11-25T00:21:18.928Z,20.40
2018-11-25T00:22:18.956Z,20.44
2018-11-25T00:23:18.909Z,20.34
2018-11-25T00:24:18.898Z,20.44
2018-11-25T00:25:18.897Z,20.37
2018-11-25T00:26:18.875Z,20.48
2018-11-25T00:27:18.905Z,20.48
2018-11-25T00:28:18.848Z,20.39
2018-11-25T00:29:18.838Z,20.40
2018-11-25T00:30:18.826Z,20.44
2018-11-25T00:31:18.815Z,20.47
2018-11-25T00:32:18.840Z,20.34
2018-11-25T00:33:18.793Z,20.48
2018-11-25T00:34:18.780Z,20.40
2018-11-25T00:35:18.770Z,20.44
2018-11-25T00:36:18.758Z,20.34
2018-11-25T00:37:18.773Z,20.47
2018-11-25T00:38:18.735Z,20.47
2018-11-25T00:39:18.728Z,20.44
2018-11-25T00:40:18.716Z,20.34
2018-11-25T00:41:18.702Z,20.44
2018-11-25T00:42:18.714Z,20.41
2018-11-25T00:43:18.709Z,20.40
2018-11-25T00:44:18.669Z,20.34
2018-11-25T00:45:18.657Z,20.47
2018-11-25T00:46:18.648Z,20.41
2018-11-25T00:47:18.634Z,20.37
2018-11-25T00:48:18.655Z,20.36
2018-11-25T00:49:18.613Z,20.37
2018-11-25T00:50:18.602Z,20.39
2018-11-25T00:51:18.589Z,20.36
2018-11-25T00:52:18.579Z,20.36
2018-11-25T00:53:18.593Z,20.37
2018-11-25T00:54:18.555Z,20.34
2018-11-25T00:55:18.544Z,20.36
2018-11-25T00:56:18.533Z,20.36
2018-11-25T00:57:18.567Z,20.34
2018-11-25T00:58:18.513Z,20.37
2018-11-25T00:59:18.503Z,20.37
2018-11-25T01:00:18.499Z,20.50
2018-11-25T01:01:18.476Z,20.37
2018-11-25T01:02:18.493Z,20.41
2018-11-25T01:03:18.474Z,20.50
2018-11-25T01:04:18.441Z,20.41
2018-11-25T01:05:18.434Z,20.39
2018-11-25T01:06:18.420Z,20.41
2018-11-25T01:07:18.476Z,20.36
2018-11-25T01:08:18.424Z,20.39
2018-11-25T01:09:18.387Z,20.40
2018-11-25T01:10:18.378Z,20.37
2018-11-25T01:11:18.365Z,20.31
2018-11-25T01:12:18.354Z,20.40
2018-11-25T01:13:18.368Z,20.41
2018-11-25T01:14:18.330Z,20.47
2018-11-25T01:15:18.318Z,20.39
2018-11-25T01:16:18.308Z,20.47
2018-11-25T01:17:18.297Z,20.34
2018-11-25T01:18:18.317Z,20.37
2018-11-25T01:19:18.277Z,20.41
2018-11-25T01:20:18.261Z,20.39
2018-11-25T01:21:18.249Z,20.40
2018-11-25T01:22:18.237Z,20.37
2018-11-25T01:23:18.244Z,20.41
2018-11-25T01:24:18.215Z,20.39
2018-11-25T01:25:18.204Z,20.40
2018-11-25T01:26:18.219Z,20.37
2018-11-25T01:27:18.182Z,20.37
2018-11-25T01:28:18.290Z,20.37
2018-11-25T01:29:18.165Z,20.37
2018-11-25T01:30:18.150Z,20.34
2018-11-25T01:31:18.137Z,20.48
2018-11-25T01:32:18.127Z,20.44
2018-11-25T01:33:18.148Z,20.41
2018-11-25T01:34:18.103Z,20.44
2018-11-25T01:35:18.096Z,20.43
2018-11-25T01:36:18.084Z,20.36
2018-11-25T01:37:18.070Z,20.40
2018-11-25T01:38:18.092Z,20.39
2018-11-25T01:39:18.049Z,20.36
2018-11-25T01:40:18.039Z,20.36
2018-11-25T01:41:18.024Z,20.40
2018-11-25T01:42:18.015Z,20.37
2018-11-25T01:43:18.119Z,20.40
2018-11-25T01:44:17.991Z,20.36
2018-11-25T01:45:17.978Z,20.41
2018-11-25T01:46:17.970Z,20.39
2018-11-25T01:47:17.957Z,20.40
2018-11-25T01:48:17.973Z,20.41
2018-11-25T01:49:17.935Z,20.43
2018-11-25T01:50:17.973Z,20.48
2018-11-25T01:51:17.910Z,20.39
2018-11-25T01:52:17.900Z,20.44
2018-11-25T01:53:17.912Z,20.34
2018-11-25T01:54:17.894Z,20.39
2018-11-25T01:55:17.869Z,20.41
2018-11-25T01:56:17.855Z,20.40
2018-11-25T01:57:17.844Z,20.43
2018-11-25T01:58:17.837Z,20.37
2018-11-25T01:59:17.842Z,20.39
2018-11-25T02:00:17.836Z,20.41
2018-11-25T02:01:17.805Z,20.37
2018-11-25T02:02:17.789Z,20.44
2018-11-25T02:03:17.803Z,20.40
2018-11-25T02:04:17.771Z,20.36
2018-11-25T02:05:17.755Z,20.41
2018-11-25T02:06:17.742Z,20.43
2018-11-25T02:07:17.731Z,20.39
2018-11-25T02:08:17.747Z,20.48
2018-11-25T02:09:17.709Z,20.34
2018-11-25T02:10:17.740Z,20.43
2018-11-25T02:11:17.687Z,20.37
2018-11-25T02:12:17.676Z,20.39
2018-11-25T02:13:17.664Z,20.36
2018-11-25T02:14:17.658Z,20.43
2018-11-25T02:15:17.686Z,20.44
2018-11-25T02:16:17.629Z,20.39
2018-11-25T02:17:17.618Z,20.43
2018-11-25T02:18:17.608Z,20.40
2018-11-25T02:19:17.595Z,20.39
2018-11-25T02:20:17.614Z,20.41
2018-11-25T02:21:17.606Z,20.41
2018-11-25T02:22:17.562Z,20.37
2018-11-25T02:23:17.551Z,20.43
2018-11-25T02:24:17.542Z,20.40
2018-11-25T02:25:17.527Z,20.40
2018-11-25T02:26:17.546Z,20.36
2018-11-25T02:27:17.510Z,20.44
2018-11-25T02:28:17.494Z,20.39
2018-11-25T02:29:17.487Z,20.41
2018-11-25T02:30:17.472Z,20.47
2018-11-25T02:31:17.484Z,20.41
2018-11-25T02:32:17.453Z,20.41
2018-11-25T02:33:17.469Z,20.36
2018-11-25T02:34:17.450Z,20.40
2018-11-25T02:35:17.415Z,20.37
2018-11-25T02:36:17.405Z,20.41
2018-11-25T02:37:17.392Z,20.37
2018-11-25T02:38:17.410Z,20.37
2018-11-25T02:39:17.371Z,20.37
2018-11-25T02:40:17.365Z,20.40
2018-11-25T02:41:17.348Z,20.41
2018-11-25T02:42:17.335Z,20.43
2018-11-25T02:43:17.352Z,20.41
2018-11-25T02:44:17.314Z,20.41
2018-11-25T02:45:17.302Z,20.44
2018-11-25T02:46:17.292Z,20.37
2018-11-25T02:47:17.281Z,20.37
2018-11-25T02:48:17.293Z,20.40
2018-11-25T02:49:17.257Z,20.47
2018-11-25T02:50:17.244Z,20.39
2018-11-25T02:51:17.233Z,20.37
2018-11-25T02:52:17.256Z,20.47
2018-11-25T02:53:17.219Z,20.37
2018-11-25T02:54:17.200Z,20.43
2018-11-25T02:55:17.194Z,20.43
2018-11-25T02:56:17.179Z,20.36
2018-11-25T02:57:17.191Z,20.40
2018-11-25T02:58:17.157Z,20.43
2018-11-25T02:59:17.168Z,20.44
2018-11-25T03:00:17.135Z,20.41
2018-11-25T03:01:17.120Z,20.44
2018-11-25T03:02:17.106Z,20.47
2018-11-25T03:03:17.121Z,20.40
2018-11-25T03:04:17.115Z,20.43
2018-11-25T03:05:17.074Z,20.47
2018-11-25T03:06:17.063Z,20.41
2018-11-25T03:07:17.050Z,20.39
2018-11-25T03:08:17.039Z,20.40
2018-11-25T03:09:17.054Z,20.41
2018-11-25T03:10:17.017Z,20.47
2018-11-25T03:11:17.006Z,20.37
2018-11-25T03:12:17.019Z,20.40
2018-11-25T03:13:16.982Z,20.37
2018-11-25T03:14:16.971Z,20.37
2018-11-25T03:15:16.963Z,20.47
2018-11-25T03:16:16.948Z,20.39
2018-11-25T03:17:16.966Z,20.43
2018-11-25T03:18:16.952Z,20.40
2018-11-25T03:19:16.915Z,20.41
2018-11-25T03:20:16.908Z,20.40
2018-11-25T03:21:16.895Z,20.43
2018-11-25T03:22:16.882Z,20.47
2018-11-25T03:23:16.898Z,20.48
2018-11-25T03:24:16.865Z,20.43
2018-11-25T03:25:16.849Z,20.34
2018-11-25T03:26:16.836Z,20.37
2018-11-25T03:27:16.829Z,20.48
2018-11-25T03:28:16.846Z,20.43
2018-11-25T03:29:16.804Z,20.41
2018-11-25T03:30:16.795Z,20.48
2018-11-25T03:31:16.780Z,20.43
2018-11-25T03:32:16.768Z,20.44
2018-11-25T03:33:16.786Z,20.48
2018-11-25T03:34:16.770Z,20.37
2018-11-25T03:35:16.779Z,20.51
2018-11-25T03:36:16.730Z,20.44
2018-11-25T03:37:16.711Z,20.43
2018-11-25T03:38:16.701Z,20.43
2018-11-25T03:39:16.689Z,20.36
2018-11-25T03:40:16.704Z,20.43
2018-11-25T03:41:16.672Z,20.40
2018-11-25T03:42:16.656Z,20.41
2018-11-25T03:43:16.667Z,20.47
2018-11-25T03:44:16.633Z,20.39
2018-11-25T03:45:16.629Z,20.37
2018-11-25T03:46:16.610Z,20.43
2018-11-25T03:47:16.638Z,20.36
2018-11-25T03:48:16.588Z,20.41
2018-11-25T03:49:16.575Z,20.41
2018-11-25T03:50:16.566Z,20.41
2018-11-25T03:51:16.554Z,20.43
2018-11-25T03:52:16.569Z,20.47
2018-11-25T03:53:16.537Z,20.41
2018-11-25T03:54:16.519Z,20.40
2018-11-25T03:55:16.510Z,20.40
2018-11-25T03:56:16.497Z,20.41
2018-11-25T03:57:16.521Z,20.44
2018-11-25T03:58:16.475Z,20.44
2018-11-25T03:59:16.463Z,20.36
2018-11-25T04:00:16.452Z,20.47
2018-11-25T04:01:16.441Z,20.39
2018-11-25T04:02:16.461Z,20.40
2018-11-25T04:03:16.419Z,20.40
2018-11-25T04:04:16.408Z,20.41
2018-11-25T04:05:16.396Z,20.47
2018-11-25T04:06:16.390Z,20.40
2018-11-25T04:07:16.407Z,20.48
2018-11-25T04:08:16.366Z,20.37
2018-11-25T04:09:16.354Z,20.47
2018-11-25T04:10:16.339Z,20.40
2018-11-25T04:11:16.336Z,20.44
2018-11-25T04:12:16.349Z,20.36
2018-11-25T04:13:16.305Z,20.41
2018-11-25T04:14:16.297Z,20.47
2018-11-25T04:15:16.302Z,20.36
2018-11-25T04:16:16.273Z,20.43
2018-11-25T04:17:16.286Z,20.44
2018-11-25T04:18:16.250Z,20.39
2018-11-25T04:19:16.237Z,20.37
2018-11-25T04:20:16.266Z,20.48
2018-11-25T04:21:16.214Z,20.37
2018-11-25T04:22:16.205Z,20.39
2018-11-25T04:23:16.197Z,20.47
2018-11-25T04:24:16.180Z,20.41
2018-11-25T04:25:16.198Z,20.39
2018-11-25T04:26:16.158Z,20.34
2018-11-25T04:27:16.151Z,20.41
2018-11-25T04:28:16.135Z,20.44
2018-11-25T04:29:16.125Z,20.37
2018-11-25T04:30:16.146Z,20.39
2018-11-25T04:31:16.101Z,20.44
2018-11-25T04:32:16.090Z,20.40
2018-11-25T04:33:16.082Z,20.43
2018-11-25T04:34:16.068Z,20.43
2018-11-25T04:35:16.081Z,20.43
2018-11-25T04:36:16.047Z,20.36
2018-11-25T04:37:16.033Z,20.39
2018-11-25T04:38:16.023Z,20.41
2018-11-25T04:39:16.014Z,20.50
2018-11-25T04:40:16.027Z,20.44
2018-11-25T04:41:15.988Z,20.39
2018-11-25T04:42:15.977Z,20.43
2018-11-25T04:43:15.994Z,20.34
2018-11-25T04:44:15.955Z,20.47
2018-11-25T04:45:15.948Z,20.47
2018-11-25T04:46:15.935Z,20.40
2018-11-25T04:47:15.920Z,20.39
2018-11-25T04:48:15.933Z,20.47
2018-11-25T04:49:15.897Z,20.39
2018-11-25T04:50:15.898Z,20.44
2018-11-25T04:51:15.881Z,20.37
2018-11-25T04:52:15.865Z,20.37
2018-11-25T04:53:15.897Z,20.37
2018-11-25T04:54:15.844Z,20.39
2018-11-25T04:55:15.836Z,20.43
2018-11-25T04:56:15.821Z,20.41
2018-11-25T04:57:15.809Z,20.43
2018-11-25T04:58:15.843Z,20.40
2018-11-25T04:59:15.786Z,20.40
2018-11-25T05:00:15.773Z,20.37
2018-11-25T05:01:15.762Z,20.43
2018-11-25T05:02:15.751Z,20.37
2018-11-25T05:03:15.764Z,20.39
2018-11-25T05:04:15.729Z,20.44
2018-11-25T05:05:15.746Z,20.47
2018-11-25T05:06:15.706Z,20.43
2018-11-25T05:07:15.698Z,20.37
2018-11-25T05:08:15.682Z,20.48
2018-11-25T05:09:15.674Z,20.48
2018-11-25T05:10:15.686Z,20.41
2018-11-25T05:11:15.651Z,20.39
2018-11-25T05:12:15.638Z,20.40
2018-11-25T05:13:15.627Z,20.41
2018-11-25T05:14:15.616Z,20.44
2018-11-25T05:15:15.634Z,20.43
2018-11-25T05:16:15.593Z,20.40
2018-11-25T05:17:15.586Z,20.40
2018-11-25T05:18:15.575Z,20.37
2018-11-25T05:19:15.562Z,20.36
2018-11-25T05:20:15.582Z,20.47
2018-11-25T05:21:15.537Z,20.43
2018-11-25T05:22:15.526Z,20.44
2018-11-25T05:23:15.517Z,20.41
2018-11-25T05:24:15.501Z,20.37
2018-11-25T05:25:15.516Z,20.34
2018-11-25T05:26:15.504Z,20.43
2018-11-25T05:27:15.468Z,20.41
2018-11-25T05:28:15.515Z,20.40
2018-11-25T05:29:15.449Z,20.47
2018-11-25T05:30:15.434Z,20.37
2018-11-25T05:31:15.448Z,20.36
2018-11-25T05:32:15.413Z,20.40
2018-11-25T05:33:15.399Z,20.41
2018-11-25T05:34:15.389Z,20.44
2018-11-25T05:35:15.377Z,20.44
2018-11-25T05:36:15.400Z,20.39
2018-11-25T05:37:15.357Z,20.47
2018-11-25T05:38:15.345Z,20.39
2018-11-25T05:39:15.333Z,20.37
2018-11-25T05:40:15.320Z,20.34
2018-11-25T05:41:15.336Z,20.40
2018-11-25T05:42:15.300Z,20.32
2018-11-25T05:43:15.293Z,20.37
2018-11-25T05:44:15.277Z,20.37
2018-11-25T05:45:15.266Z,20.37
2018-11-25T05:46:15.289Z,20.40
2018-11-25T05:47:15.248Z,20.37
2018-11-25T05:48:15.234Z,20.37
2018-11-25T05:49:15.227Z,20.40
2018-11-25T05:50:15.209Z,20.41
2018-11-25T05:51:15.235Z,20.43
2018-11-25T05:52:15.190Z,20.36
2018-11-25T05:53:15.175Z,20.43
2018-11-25T05:54:15.167Z,20.37
2018-11-25T05:55:15.194Z,20.36
2018-11-25T05:56:15.173Z,20.39
2018-11-25T05:57:15.131Z,20.44
2018-11-25T05:58:15.119Z,20.41
2018-11-25T05:59:15.108Z,20.47
2018-11-25T06:00:15.097Z,20.39
2018-11-25T06:01:15.111Z,20.36
2018-11-25T06:02:15.077Z,20.37
2018-11-25T06:03:15.065Z,20.41
2018-11-25T06:04:15.050Z,20.41
2018-11-25T06:05:15.072Z,20.40
2018-11-25T06:06:15.029Z,20.40
2018-11-25T06:07:15.017Z,20.39
2018-11-25T06:08:15.008Z,20.40
2018-11-25T06:09:14.995Z,20.50
2018-11-25T06:10:15.007Z,20.37
2018-11-25T06:11:14.979Z,20.39
2018-11-25T06:12:14.960Z,20.40
2018-11-25T06:13:14.951Z,20.36
2018-11-25T06:14:14.944Z,20.41
2018-11-25T06:15:14.970Z,20.37
2018-11-25T06:16:14.924Z,20.40
2018-11-25T06:17:14.908Z,20.40
2018-11-25T06:18:14.891Z,20.37
2018-11-25T06:19:14.880Z,20.37
2018-11-25T06:20:14.898Z,20.41
2018-11-25T06:21:14.887Z,20.41
2018-11-25T06:22:14.848Z,20.39
2018-11-25T06:23:14.836Z,20.40
2018-11-25T06:24:14.850Z,20.41
2018-11-25T06:25:14.837Z,20.37
2018-11-25T06:26:14.803Z,20.41
2018-11-25T06:27:14.794Z,20.41
2018-11-25T06:28:14.806Z,20.43
2018-11-25T06:29:14.769Z,20.43
2018-11-25T06:30:14.760Z,20.39
2018-11-25T06:31:14.790Z,20.37
2018-11-25T06:32:14.734Z,20.39
2018-11-25T06:33:14.727Z,20.43
2018-11-25T06:34:14.717Z,20.43
2018-11-25T06:35:14.704Z,20.43
2018-11-25T06:36:14.723Z,20.41
2018-11-25T06:37:14.684Z,20.41
2018-11-25T06:38:14.668Z,20.40
2018-11-25T06:39:14.656Z,20.48
2018-11-25T06:40:14.654Z,20.37
2018-11-25T06:41:14.658Z,20.40
2018-11-25T06:42:14.625Z,20.34
2018-11-25T06:43:14.614Z,20.39
2018-11-25T06:44:14.624Z,20.41
2018-11-25T06:45:14.589Z,20.43
2018-11-25T06:46:14.575Z,20.41
2018-11-25T06:47:14.567Z,20.32
2018-11-25T06:48:14.579Z,20.37
2018-11-25T06:49:14.544Z,20.40
2018-11-25T06:50:14.558Z,20.39
2018-11-25T06:51:14.522Z,20.37
2018-11-25T06:52:14.511Z,20.43
2018-11-25T06:53:14.497Z,20.39
2018-11-25T06:54:14.489Z,20.37
2018-11-25T06:55:14.500Z,20.40
2018-11-25T06:56:14.464Z,20.43
2018-11-25T06:57:14.454Z,20.39
2018-11-25T06:58:14.441Z,20.41
2018-11-25T06:59:14.429Z,20.43
2018-11-25T07:00:14.457Z,20.37
2018-11-25T07:01:14.406Z,20.40
2018-11-25T07:02:14.395Z,20.40
2018-11-25T07:03:14.388Z,20.48
2018-11-25T07:04:14.374Z,20.41
2018-11-25T07:05:14.386Z,20.43
2018-11-25T07:06:14.353Z,20.41
2018-11-25T07:07:14.338Z,20.39
2018-11-25T07:08:14.355Z,20.43
2018-11-25T07:09:14.319Z,20.41
2018-11-25T07:10:14.307Z,20.44
2018-11-25T07:11:14.321Z,20.41
2018-11-25T07:12:14.283Z,20.37
2018-11-25T07:13:14.308Z,20.37
2018-11-25T07:14:14.260Z,20.37
2018-11-25T07:15:14.248Z,20.39
2018-11-25T07:16:14.239Z,20.40
2018-11-25T07:17:14.227Z,20.41
2018-11-25T07:18:14.252Z,20.37
2018-11-25T07:19:14.204Z,20.41
2018-11-25T07:20:14.194Z,20.34
2018-11-25T07:21:14.180Z,20.40
2018-11-25T07:22:14.169Z,20.43
2018-11-25T07:23:14.176Z,20.43
2018-11-25T07:24:14.149Z,20.37
2018-11-25T07:25:14.191Z,20.41
2018-11-25T07:26:14.125Z,20.40
2018-11-25T07:27:14.111Z,20.41
2018-11-25T07:28:18.275Z,20.36
2018-11-25T07:29:14.093Z,20.37
2018-11-25T07:30:14.082Z,20.39
2018-11-25T07:31:14.070Z,20.37
2018-11-25T07:32:14.056Z,20.36
2018-11-25T07:33:14.081Z,20.36
2018-11-25T07:34:14.035Z,20.37
2018-11-25T07:35:14.022Z,20.36
2018-11-25T07:36:14.014Z,20.40
2018-11-25T07:37:14.000Z,20.40
2018-11-25T07:38:14.013Z,20.37
2018-11-25T07:39:14.011Z,20.36
2018-11-25T07:40:13.967Z,20.36
2018-11-25T07:41:13.955Z,20.41
2018-11-25T07:42:13.945Z,20.40
2018-11-25T07:43:13.937Z,20.41
2018-11-25T07:44:13.944Z,20.43
2018-11-25T07:45:13.912Z,20.41
2018-11-25T07:46:13.926Z,20.41
2018-11-25T07:47:13.886Z,20.39
2018-11-25T07:48:13.874Z,20.41
2018-11-25T07:49:13.865Z,20.47
2018-11-25T07:50:13.887Z,20.41
2018-11-25T07:51:13.840Z,20.37
2018-11-25T07:52:13.834Z,20.41
2018-11-25T07:53:13.819Z,20.41
2018-11-25T07:54:13.810Z,20.34
2018-11-25T07:55:13.835Z,20.39
2018-11-25T07:56:13.784Z,20.39
2018-11-25T07:57:13.774Z,20.37
2018-11-25T07:58:13.763Z,20.44
2018-11-25T07:59:13.750Z,20.43
2018-11-25T08:00:13.785Z,20.40
2018-11-25T08:01:13.731Z,20.34
2018-11-25T08:02:13.719Z,20.41
2018-11-25T08:03:13.706Z,20.47
2018-11-25T08:04:13.699Z,20.43
2018-11-25T08:05:13.708Z,20.39
2018-11-25T08:06:13.680Z,20.47
2018-11-25T08:07:13.660Z,20.43
2018-11-25T08:08:13.691Z,20.36
2018-11-25T08:09:13.639Z,20.41
2018-11-25T08:10:13.625Z,20.41
2018-11-25T08:11:13.617Z,20.44
2018-11-25T08:12:13.602Z,20.41
2018-11-25T08:13:13.631Z,20.47
2018-11-25T08:14:13.584Z,20.43
2018-11-25T08:15:13.576Z,20.41
2018-11-25T08:16:13.558Z,20.47
2018-11-25T08:17:13.550Z,20.40
2018-11-25T08:18:13.569Z,20.47
2018-11-25T08:19:13.524Z,20.47
2018-11-25T08:20:13.515Z,20.39
2018-11-25T08:21:13.533Z,20.47
2018-11-25T08:22:13.519Z,20.37
2018-11-25T08:23:14.778Z,20.48
2018-11-25T08:24:13.473Z,20.43
2018-11-25T08:25:13.457Z,20.50
2018-11-25T08:26:13.448Z,20.48
2018-11-25T08:27:13.465Z,20.50
2018-11-25T08:28:13.448Z,20.51
2018-11-25T08:29:13.413Z,20.48
2018-11-25T08:30:13.400Z,20.47
2018-11-25T08:31:13.396Z,20.44
2018-11-25T08:32:13.402Z,20.40
2018-11-25T08:33:13.370Z,20.41
2018-11-25T08:34:13.362Z,20.47
2018-11-25T08:35:13.347Z,20.52
2018-11-25T08:36:13.332Z,20.50
2018-11-25T08:37:13.358Z,20.48
2018-11-25T08:38:13.313Z,20.48
2018-11-25T08:39:13.302Z,20.43
2018-11-25T08:40:13.289Z,20.43
2018-11-25T08:41:13.279Z,20.50
2018-11-25T08:42:13.309Z,20.41
2018-11-25T08:43:13.254Z,20.44
2018-11-25T08:44:13.243Z,20.41
2018-11-25T08:45:13.233Z,20.43
2018-11-25T08:46:13.223Z,20.51
2018-11-25T08:47:13.234Z,20.50
2018-11-25T08:48:13.198Z,20.55
2018-11-25T08:49:13.190Z,20.50
2018-11-25T08:50:13.175Z,20.51
2018-11-25T08:51:13.190Z,20.58
2018-11-25T08:52:13.156Z,20.59
2018-11-25T08:53:13.141Z,20.50
2018-11-25T08:54:13.135Z,20.55
2018-11-25T08:55:13.237Z,20.44
2018-11-25T08:56:13.109Z,20.48
2018-11-25T08:57:13.098Z,20.51
2018-11-25T08:58:13.089Z,20.55
2018-11-25T08:59:13.080Z,20.60
2018-11-25T09:00:13.103Z,20.58
2018-11-25T09:01:13.053Z,20.62
2018-11-25T09:02:13.040Z,20.52
2018-11-25T09:03:13.028Z,20.60
2018-11-25T09:04:13.019Z,20.51
2018-11-25T09:05:13.039Z,20.56
2018-11-25T09:06:12.995Z,20.50
2018-11-25T09:07:12.983Z,20.55
2018-11-25T09:08:12.974Z,20.55
2018-11-25T09:09:12.961Z,20.48
2018-11-25T09:10:12.984Z,20.56
2018-11-25T09:11:12.940Z,20.51
2018-11-25T09:12:12.927Z,20.60
2018-11-25T09:13:12.917Z,20.59
2018-11-25T09:14:12.904Z,20.52
2018-11-25T09:15:12.932Z,20.56
2018-11-25T09:16:12.883Z,20.59
2018-11-25T09:17:12.871Z,20.56
2018-11-25T09:18:12.865Z,20.52
2018-11-25T09:19:12.847Z,20.58
2018-11-25T09:20:12.919Z,20.62
2018-11-25T09:21:12.826Z,20.58
2018-11-25T09:22:12.820Z,20.59
2018-11-25T09:23:12.802Z,20.59
2018-11-25T09:24:12.823Z,20.55
2018-11-25T09:25:12.782Z,20.55
2018-11-25T09:26:12.769Z,20.62
2018-11-25T09:27:12.756Z,20.63
2018-11-25T09:28:12.747Z,20.62
2018-11-25T09:29:12.771Z,20.67
2018-11-25T09:30:12.724Z,20.59
2018-11-25T09:31:12.711Z,20.62
2018-11-25T09:32:12.700Z,20.58
2018-11-25T09:33:12.693Z,20.66
2018-11-25T09:34:12.714Z,20.67
2018-11-25T09:35:12.667Z,20.63
2018-11-25T09:36:12.655Z,20.62
2018-11-25T09:37:12.646Z,20.70
2018-11-25T09:38:12.635Z,20.69
2018-11-25T09:39:12.646Z,20.66
2018-11-25T09:40:12.610Z,20.70
2018-11-25T09:41:12.626Z,20.66
2018-11-25T09:42:12.588Z,20.74
2018-11-25T09:43:12.578Z,20.67
2018-11-25T09:44:12.567Z,20.70
2018-11-25T09:45:12.557Z,20.66
2018-11-25T09:46:12.567Z,20.67
2018-11-25T09:47:12.531Z,20.66
2018-11-25T09:48:12.544Z,20.66
2018-11-25T09:49:12.514Z,20.69
2018-11-25T09:50:12.564Z,20.70
2018-11-25T09:51:12.486Z,20.69
2018-11-25T09:52:12.476Z,20.69
2018-11-25T09:53:12.495Z,20.65
2018-11-25T09:54:12.453Z,20.66
2018-11-25T09:55:12.442Z,20.67
2018-11-25T09:56:12.431Z,20.67
2018-11-25T09:57:12.416Z,20.69
2018-11-25T09:58:12.450Z,20.70
2018-11-25T09:59:12.395Z,20.67
2018-11-25T10:00:12.383Z,20.63
2018-11-25T10:01:12.375Z,20.65
2018-11-25T10:02:12.366Z,20.67
2018-11-25T10:03:12.375Z,20.70
2018-11-25T10:04:12.339Z,20.63
2018-11-25T10:05:12.326Z,20.69
2018-11-25T10:06:12.948Z,20.67
2018-11-25T10:07:12.306Z,20.67
2018-11-25T10:08:12.296Z,20.65
2018-11-25T10:09:12.282Z,20.67
2018-11-25T10:10:12.271Z,20.72
2018-11-25T10:11:12.286Z,20.72
2018-11-25T10:12:12.248Z,20.77
2018-11-25T10:13:12.238Z,20.69
2018-11-25T10:14:12.227Z,20.67
2018-11-25T10:15:12.218Z,20.67
2018-11-25T10:16:12.238Z,20.77
2018-11-25T10:17:12.191Z,20.75
2018-11-25T10:18:12.180Z,20.75
2018-11-25T10:19:12.170Z,20.78
2018-11-25T10:20:12.159Z,20.66
2018-11-25T10:21:12.170Z,20.75
2018-11-25T10:22:12.135Z,20.65
2018-11-25T10:23:12.124Z,20.78
2018-11-25T10:24:12.113Z,20.74
2018-11-25T10:25:12.127Z,20.78
2018-11-25T10:26:12.093Z,20.69
2018-11-25T10:27:12.109Z,20.77
2018-11-25T10:28:12.069Z,20.74
2018-11-25T10:29:12.057Z,20.78
2018-11-25T10:30:12.048Z,20.77
2018-11-25T10:31:12.033Z,20.74
2018-11-25T10:32:12.047Z,20.78
2018-11-25T10:33:12.021Z,20.75
2018-11-25T10:34:11.999Z,20.72
2018-11-25T10:35:11.990Z,20.75
2018-11-25T10:36:11.979Z,20.81
2018-11-25T10:37:12.005Z,20.78
2018-11-25T10:38:11.953Z,20.77
2018-11-25T10:39:11.946Z,20.78
2018-11-25T10:40:11.930Z,20.80
2018-11-25T10:41:11.924Z,20.80
2018-11-25T10:42:11.934Z,20.78
2018-11-25T10:43:11.897Z,20.80
2018-11-25T10:44:11.886Z,20.82
2018-11-25T10:45:11.877Z,20.81
2018-11-25T10:46:11.889Z,20.82
2018-11-25T10:47:11.855Z,20.78
2018-11-25T10:48:11.845Z,20.80
2018-11-25T10:49:11.854Z,20.81
2018-11-25T10:50:11.818Z,20.78
2018-11-25T10:51:11.806Z,20.85
2018-11-25T10:52:11.828Z,20.84
2018-11-25T10:53:11.800Z,20.82
2018-11-25T10:54:11.797Z,20.85
2018-11-25T10:55:11.762Z,20.81
2018-11-25T10:56:11.760Z,20.77
2018-11-25T10:57:11.740Z,20.81
2018-11-25T10:58:11.729Z,20.78
2018-11-25T10:59:11.755Z,20.81
2018-11-25T11:00:11.704Z,20.84
2018-11-25T11:01:11.695Z,20.87
2018-11-25T11:02:11.681Z,20.82
2018-11-25T11:03:11.672Z,20.81
2018-11-25T11:04:11.687Z,20.84
2018-11-25T11:05:11.648Z,20.82
2018-11-25T11:06:11.636Z,20.81
2018-11-25T11:07:11.626Z,20.82
2018-11-25T11:08:11.615Z,20.87
2018-11-25T11:09:11.627Z,20.78
2018-11-25T11:10:11.591Z,20.92
2018-11-25T11:11:11.604Z,20.95
2018-11-25T11:12:11.569Z,20.82
2018-11-25T11:13:11.599Z,20.87
2018-11-25T11:14:11.548Z,20.81
2018-11-25T11:15:11.534Z,20.92
2018-11-25T11:16:11.525Z,20.81
2018-11-25T11:17:11.516Z,20.90
2018-11-25T11:18:11.622Z,20.96
2018-11-25T11:19:11.488Z,20.96
2018-11-25T11:20:11.479Z,20.88
2018-11-25T11:21:11.469Z,20.93
2018-11-25T11:22:11.456Z,20.95
2018-11-25T11:23:11.482Z,20.96
2018-11-25T11:24:11.433Z,20.95
2018-11-25T11:25:11.420Z,20.92
2018-11-25T11:26:11.411Z,20.96
2018-11-25T11:27:11.400Z,20.88
2018-11-25T11:28:11.418Z,20.93
2018-11-25T11:29:11.376Z,20.95
2018-11-25T11:30:11.363Z,20.90
2018-11-25T11:31:13.493Z,20.96
2018-11-25T11:32:11.343Z,20.96
2018-11-25T11:33:11.341Z,20.93
2018-11-25T11:34:11.321Z,20.93
2018-11-25T11:35:11.308Z,20.92
2018-11-25T11:36:11.327Z,20.97
2018-11-25T11:37:11.288Z,20.88
2018-11-25T11:38:11.274Z,20.93
2018-11-25T11:39:11.261Z,20.93
2018-11-25T11:40:11.251Z,21.00
2018-11-25T11:41:11.268Z,20.92
2018-11-25T11:42:11.229Z,20.90
2018-11-25T11:43:11.217Z,20.96
2018-11-25T11:44:11.207Z,20.93
2018-11-25T11:45:11.196Z,20.92
2018-11-25T11:46:11.217Z,21.00
2018-11-25T11:47:11.172Z,20.99
2018-11-25T11:48:11.168Z,21.00
2018-11-25T11:49:11.148Z,20.97
2018-11-25T11:50:11.139Z,21.05
2018-11-25T11:51:11.151Z,20.99
2018-11-25T11:52:11.113Z,21.00
2018-11-25T11:53:11.102Z,20.97
2018-11-25T11:54:11.095Z,20.99
2018-11-25T11:55:11.088Z,20.93
2018-11-25T11:56:11.093Z,21.03
2018-11-25T11:57:11.058Z,20.99
2018-11-25T11:58:11.074Z,21.05
2018-11-25T11:59:11.082Z,20.95
2018-11-25T12:00:11.024Z,20.96
2018-11-25T12:01:11.016Z,21.00
2018-11-25T12:02:11.002Z,20.97
2018-11-25T12:03:10.989Z,20.96
2018-11-25T12:04:11.005Z,21.05
2018-11-25T12:05:10.967Z,21.02
2018-11-25T12:06:10.974Z,21.06
2018-11-25T12:07:10.946Z,21.02
2018-11-25T12:08:10.932Z,21.03
2018-11-25T12:09:10.923Z,21.06
2018-11-25T12:10:10.913Z,21.06
2018-11-25T12:11:10.926Z,21.00
2018-11-25T12:12:10.888Z,21.12
2018-11-25T12:13:10.887Z,21.07
2018-11-25T12:14:10.871Z,21.06
2018-11-25T12:15:10.854Z,21.02
2018-11-25T12:16:10.877Z,21.12
2018-11-25T12:17:10.831Z,21.06
2018-11-25T12:18:10.821Z,21.02
2018-11-25T12:19:10.809Z,21.07
2018-11-25T12:20:10.798Z,21.02
2018-11-25T12:21:10.820Z,21.05
2018-11-25T12:22:10.774Z,21.05
2018-11-25T12:23:10.762Z,21.03
2018-11-25T12:24:10.756Z,21.03
2018-11-25T12:25:10.743Z,21.03
2018-11-25T12:26:10.770Z,21.09
2018-11-25T12:27:10.720Z,21.09
2018-11-25T12:28:10.709Z,21.05
2018-11-25T12:29:10.694Z,21.06
2018-11-25T12:30:10.686Z,21.06
2018-11-25T12:31:10.697Z,21.11
2018-11-25T12:32:10.663Z,21.06
2018-11-25T12:33:10.652Z,21.07
2018-11-25T12:34:10.639Z,21.17
2018-11-25T12:35:10.632Z,21.11
2018-11-25T12:36:10.639Z,21.05
2018-11-25T12:37:10.605Z,21.06
2018-11-25T12:38:10.594Z,21.12
2018-11-25T12:39:10.582Z,21.06
2018-11-25T12:40:10.572Z,21.07
2018-11-25T12:41:10.586Z,21.07
2018-11-25T12:42:10.579Z,21.03
2018-11-25T12:43:10.572Z,21.14
2018-11-25T12:44:10.529Z,21.06
2018-11-25T12:45:10.514Z,21.07
2018-11-25T12:46:10.504Z,21.11
2018-11-25T12:47:10.493Z,21.06
2018-11-25T12:48:10.505Z,21.02
2018-11-25T12:49:10.498Z,21.07
2018-11-25T12:50:10.457Z,21.15
2018-11-25T12:51:10.447Z,21.06
2018-11-25T12:52:10.434Z,21.18